Time;durP1;ratioP1;P1;durP2;ratioP2;P2;SDS_P1;SDS_P2;PMS_P1;PMS_P2;Temp;Humidity;BMP_temperature;BMP_pressure;BME280_temperature;BME280_humidity;BME280_pressure;Samples;Min_cycle;Max_cycle;Signal;HPM_P1;HPM_P2
2023/12/26 00:02:24;;;;;;;4.45;1.83;;;5.20;99.90;;;;;;4865128;29;20060;-81
2023/12/26 00:04:49;;;;;;;3.35;1.92;;;5.20;99.90;;;;;;4861613;29;20027;-80
2023/12/26 00:07:36;;;;;;;6.25;2.38;;;5.40;99.90;;;;;;4904438;29;20048;-77
2023/12/26 00:10:44;;;;;;;10.35;2.67;;;5.40;99.90;;;;;;4915851;29;20021;-78
2023/12/26 00:13:10;;;;;;;4.65;1.80;;;5.40;99.90;;;;;;4898357;29;20050;-82
2023/12/26 00:15:35;;;;;;;2.92;2.17;;;5.50;99.90;;;;;;4893505;29;20020;-79
2023/12/26 00:18:01;;;;;;;4.65;1.77;;;5.60;99.90;;;;;;4910388;29;20032;-81
2023/12/26 00:20:27;;;;;;;4.85;1.80;;;5.60;99.90;;;;;;4886059;29;20020;-76
2023/12/26 00:22:53;;;;;;;6.28;1.60;;;5.50;99.90;;;;;;4906509;29;20036;-76
2023/12/26 00:29:25;;;;;;;2.20;1.98;;;5.50;99.90;;;;;;4923224;29;20032;-74
2023/12/26 00:31:51;;;;;;;5.65;2.53;;;5.70;99.90;;;;;;4888077;29;20032;-76
2023/12/26 00:34:16;;;;;;;9.13;4.57;;;5.70;99.90;;;;;;4907139;29;20017;-78
2023/12/26 00:37:06;;;;;;;6.32;2.25;;;5.60;99.90;;;;;;4919421;29;20053;-76
2023/12/26 00:47:10;;;;;;;4.20;1.95;;;5.50;99.90;;;;;;4866052;29;20041;-76
2023/12/26 00:49:38;;;;;;;9.65;1.65;;;5.80;99.90;;;;;;4866665;29;20034;-76
2023/12/26 00:52:38;;;;;;;8.02;1.80;;;6.00;99.90;;;;;;4907415;29;20017;-76
2023/12/26 00:55:42;;;;;;;4.55;1.50;;;6.20;99.90;;;;;;4905952;29;20043;-76
2023/12/26 01:11:43;;;;;;;3.35;1.33;;;6.30;99.90;;;;;;4884978;29;20119;-76
2023/12/26 01:14:26;;;;;;;6.13;1.77;;;6.30;99.90;;;;;;4882587;29;20044;-76
2023/12/26 01:17:21;;;;;;;3.17;1.65;;;6.20;99.90;;;;;;4878819;29;20022;-76
2023/12/26 01:20:06;;;;;;;3.05;1.58;;;6.30;99.90;;;;;;4861365;29;20093;-76
2023/12/26 01:22:31;;;;;;;3.35;1.38;;;6.40;99.90;;;;;;4846949;29;20723;-81
2023/12/26 01:24:58;;;;;;;3.60;1.65;;;6.50;99.90;;;;;;4857787;29;20129;-81
2023/12/26 01:27:24;;;;;;;6.45;2.20;;;6.60;99.90;;;;;;4860156;29;20596;-79
2023/12/26 01:29:50;;;;;;;6.35;1.58;;;6.60;99.90;;;;;;4825415;29;20117;-81
2023/12/26 01:32:16;;;;;;;2.00;1.15;;;6.60;99.90;;;;;;4845463;29;20522;-79
2023/12/26 01:34:41;;;;;;;5.68;2.08;;;6.70;99.90;;;;;;4839768;29;20026;-79
2023/12/26 01:37:07;;;;;;;4.07;1.67;;;6.80;99.90;;;;;;4826898;29;20038;-78
2023/12/26 01:39:33;;;;;;;4.90;2.17;;;6.90;99.90;;;;;;4859732;29;20446;-79
2023/12/26 01:41:58;;;;;;;5.45;1.40;;;7.00;99.90;;;;;;4879864;29;20505;-81
2023/12/26 01:44:24;;;;;;;2.40;1.40;;;7.10;99.90;;;;;;4875856;29;20024;-80
2023/12/26 01:46:50;;;;;;;6.35;1.63;;;7.10;99.90;;;;;;4880787;29;20028;-82
2023/12/26 01:49:16;;;;;;;4.05;1.80;;;7.10;99.90;;;;;;4898610;29;20140;-81
2023/12/26 01:51:42;;;;;;;2.88;1.23;;;7.20;99.90;;;;;;4904109;29;20394;-81
2023/12/26 01:54:09;;;;;;;5.75;1.27;;;7.20;99.90;;;;;;4903598;29;20442;-80
2023/12/26 01:56:35;;;;;;;6.68;1.55;;;7.20;99.90;;;;;;4902458;29;20025;-82
2023/12/26 01:59:06;;;;;;;5.07;1.33;;;7.20;99.90;;;;;;4904913;29;20056;-76
2023/12/26 02:01:31;;;;;;;4.07;1.48;;;7.20;99.90;;;;;;4901587;29;20044;-79
2023/12/26 02:04:01;;;;;;;4.72;1.40;;;7.20;99.90;;;;;;4905603;29;20043;-82
2023/12/26 02:06:30;;;;;;;2.45;1.80;;;7.20;99.90;;;;;;4904468;29;20027;-81
2023/12/26 02:08:56;;;;;;;6.45;1.65;;;5.90;99.90;;;;;;4906078;29;20104;-79
2023/12/26 02:11:22;;;;;;;1.75;1.38;;;7.20;99.90;;;;;;4902051;29;20175;-83
2023/12/26 02:13:48;;;;;;;4.97;1.45;;;7.20;99.90;;;;;;4880578;29;20411;-81
2023/12/26 02:16:19;;;;;;;6.20;1.75;;;7.10;99.90;;;;;;4895047;29;20024;-82
2023/12/26 02:18:44;;;;;;;1.13;0.85;;;7.10;99.90;;;;;;4888396;29;20033;-80
2023/12/26 02:21:11;;;;;;;4.63;1.15;;;7.10;99.90;;;;;;4901438;29;20687;-82
2023/12/26 02:23:37;;;;;;;4.40;1.13;;;7.10;99.90;;;;;;4907142;29;20128;-83
2023/12/26 02:26:04;;;;;;;3.40;1.45;;;7.10;99.90;;;;;;4896641;29;20037;-81
2023/12/26 02:28:32;;;;;;;5.57;1.80;;;7.10;99.90;;;;;;4920574;29;20045;-82
2023/12/26 02:31:01;;;;;;;7.50;1.30;;;7.10;99.90;;;;;;4912927;29;20028;-81
2023/12/26 02:33:28;;;;;;;8.82;2.47;;;7.10;99.90;;;;;;4891007;29;20041;-82
2023/12/26 02:35:57;;;;;;;7.50;1.52;;;7.10;99.90;;;;;;4882328;29;20037;-81
2023/12/26 02:38:23;;;;;;;3.55;1.30;;;7.00;99.90;;;;;;4890617;29;20105;-83
2023/12/26 02:40:51;;;;;;;3.47;1.45;;;7.00;99.90;;;;;;4871257;29;20037;-82
2023/12/26 02:43:20;;;;;;;5.93;1.90;;;7.00;99.90;;;;;;4895398;29;20066;-84
2023/12/26 02:45:48;;;;;;;6.00;1.40;;;7.00;99.90;;;;;;4891620;29;20501;-81
2023/12/26 02:48:15;;;;;;;4.78;1.52;;;6.90;99.90;;;;;;4888602;29;20021;-82
2023/12/26 02:50:41;;;;;;;5.38;1.38;;;6.80;99.90;;;;;;4932843;29;20059;-83
2023/12/26 02:53:07;;;;;;;3.20;1.27;;;6.80;99.90;;;;;;4936322;29;20084;-83
2023/12/26 02:55:33;;;;;;;1.48;1.27;;;6.80;99.90;;;;;;4933206;29;20076;-83
2023/12/26 02:58:02;;;;;;;2.28;1.70;;;6.80;99.90;;;;;;4920984;29;20052;-84
2023/12/26 03:00:28;;;;;;;;;;;6.70;99.90;;;;;;4917017;29;20534;-82
2023/12/26 03:02:53;;;;;;;3.85;1.17;;;6.70;99.90;;;;;;4919571;29;20007;-83
2023/12/26 03:05:19;;;;;;;4.00;1.40;;;6.70;99.90;;;;;;4891815;29;20075;-84
2023/12/26 03:07:45;;;;;;;4.63;1.65;;;6.70;99.90;;;;;;4895881;29;20008;-82
2023/12/26 03:10:11;;;;;;;7.25;1.77;;;6.70;99.90;;;;;;4911030;29;20036;-82
2023/12/26 03:12:37;;;;;;;1.48;1.38;;;6.80;99.90;;;;;;4902466;29;20071;-81
2023/12/26 03:15:03;;;;;;;2.42;1.55;;;6.70;99.90;;;;;;4922799;29;20008;-83
2023/12/26 03:17:29;;;;;;;3.90;2.08;;;6.70;99.90;;;;;;4898097;29;20024;-82
2023/12/26 03:19:59;;;;;;;2.22;1.27;;;6.80;99.90;;;;;;4894045;29;20060;-80
2023/12/26 03:22:25;;;;;;;7.97;3.00;;;6.00;99.90;;;;;;4905982;29;20048;-84
2023/12/26 03:24:51;;;;;;;2.95;1.50;;;6.70;99.90;;;;;;4922156;29;20019;-84
2023/12/26 03:27:30;;;;;;;2.60;1.30;;;6.60;99.90;;;;;;4903009;29;20032;-78
2023/12/26 03:29:56;;;;;;;9.52;2.00;;;6.60;99.90;;;;;;4903384;29;20028;-78
2023/12/26 03:32:22;;;;;;;2.45;1.10;;;6.60;99.90;;;;;;4903198;29;20053;-84
2023/12/26 03:34:47;;;;;;;2.75;1.75;;;6.60;99.90;;;;;;4890998;29;20092;-85
2023/12/26 03:37:14;;;;;;;3.78;1.42;;;6.60;99.90;;;;;;4900263;29;20061;-84
2023/12/26 03:39:49;;;;;;;3.25;1.50;;;6.60;99.90;;;;;;4898937;29;20454;-81
2023/12/26 03:42:15;;;;;;;8.35;1.33;;;6.50;99.90;;;;;;4901055;29;20045;-83
2023/12/26 03:44:46;;;;;;;5.60;1.60;;;6.50;99.90;;;;;;4894581;29;20057;-79
2023/12/26 03:47:35;;;;;;;5.13;1.67;;;6.50;99.90;;;;;;4897545;29;20116;-80
2023/12/26 03:50:03;;;;;;;4.38;2.10;;;6.50;99.90;;;;;;4881418;29;20032;-78
2023/12/26 03:52:48;;;;;;;2.67;1.10;;;6.50;99.90;;;;;;4893537;29;20017;-78
2023/12/26 03:55:14;;;;;;;3.58;1.48;;;6.60;99.90;;;;;;4881001;29;20117;-78
2023/12/26 03:57:41;;;;;;;4.40;1.42;;;6.60;99.90;;;;;;4888510;29;20036;-81
2023/12/26 04:00:08;;;;;;;2.63;1.50;;;6.60;99.90;;;;;;4887277;29;20028;-81
2023/12/26 04:02:34;;;;;;;2.00;1.50;;;6.60;99.90;;;;;;4904585;29;20025;-81
2023/12/26 04:05:01;;;;;;;1.38;1.20;;;6.60;99.90;;;;;;4909128;29;20029;-78
2023/12/26 04:07:51;;;;;;;3.72;1.80;;;7.10;99.90;;;;;;4921947;29;20032;-78
2023/12/26 04:10:16;;;;;;;5.22;1.50;;;6.70;99.90;;;;;;4902921;29;20096;-79
2023/12/26 04:12:42;;;;;;;4.50;1.42;;;6.80;99.90;;;;;;4906539;29;20040;-78
2023/12/26 04:15:09;;;;;;;5.43;1.60;;;6.70;99.90;;;;;;4903665;29;20076;-79
2023/12/26 04:17:37;;;;;;;3.38;1.65;;;6.70;99.90;;;;;;4904802;29;20024;-79
2023/12/26 04:20:38;;;;;;;2.83;1.92;;;6.70;99.90;;;;;;4848784;29;20018;-79
2023/12/26 04:23:05;;;;;;;2.47;1.15;;;6.70;99.90;;;;;;4887537;29;20061;-77
2023/12/26 04:25:31;;;;;;;2.45;1.20;;;6.70;99.90;;;;;;4888320;29;20013;-78
2023/12/26 04:27:57;;;;;;;3.67;1.83;;;6.70;99.90;;;;;;5225753;23;20077;-78
2023/12/26 04:30:31;;;;;;;3.97;1.45;;;6.50;99.90;;;;;;4922072;29;20104;-79
2023/12/26 04:32:56;;;;;;;2.47;1.45;;;6.70;99.90;;;;;;4921848;29;20036;-78
2023/12/26 04:35:22;;;;;;;5.28;1.20;;;6.60;99.90;;;;;;4906428;29;20040;-78
2023/12/26 04:37:48;;;;;;;6.18;2.38;;;6.60;99.90;;;;;;4921769;29;20029;-78
2023/12/26 04:40:38;;;;;;;4.10;1.90;;;6.60;99.90;;;;;;4921609;29;20024;-78
2023/12/26 04:43:28;;;;;;;3.10;1.60;;;6.50;99.90;;;;;;4921833;29;20021;-77
2023/12/26 04:46:32;;;;;;;6.80;1.30;;;6.50;99.90;;;;;;4923071;29;20016;-77
2023/12/26 04:49:11;;;;;;;6.13;2.10;;;6.50;99.90;;;;;;4902077;29;20080;-77
2023/12/26 04:52:02;;;;;;;6.15;2.05;;;6.50;99.90;;;;;;4906797;29;20029;-78
2023/12/26 04:54:28;;;;;;;2.35;1.52;;;6.40;99.90;;;;;;4906028;29;20060;-78
2023/12/26 04:57:25;;;;;;;5.53;1.90;;;6.40;99.90;;;;;;4922874;29;20036;-77
2023/12/26 04:59:51;;;;;;;3.38;1.45;;;6.50;99.90;;;;;;4906774;29;20024;-76
2023/12/26 05:02:17;;;;;;;3.55;1.88;;;6.80;99.90;;;;;;4906350;29;20013;-79
2023/12/26 05:04:43;;;;;;;3.55;1.45;;;6.40;99.90;;;;;;4906377;29;20115;-79
2023/12/26 05:07:08;;;;;;;4.80;1.38;;;6.50;99.90;;;;;;4906479;29;20096;-77
2023/12/26 05:16:23;;;;;;;3.70;1.98;;;6.40;99.90;;;;;;4920142;29;20085;-78
2023/12/26 05:18:49;;;;;;;3.17;1.58;;;6.50;99.90;;;;;;4906399;29;20027;-77
2023/12/26 05:21:24;;;;;;;2.90;1.25;;;6.50;99.90;;;;;;4907706;29;20040;-77
2023/12/26 05:23:51;;;;;;;3.67;1.42;;;7.60;99.90;;;;;;4908149;29;20036;-79
2023/12/26 05:26:50;;;;;;;2.90;1.42;;;6.70;99.90;;;;;;4926916;29;20046;-77
2023/12/26 05:32:55;;;;;;;1.85;1.42;;;6.80;99.90;;;;;;4889381;29;20081;-77
2023/12/26 05:35:21;;;;;;;1.95;1.50;;;6.90;99.90;;;;;;4888446;29;20024;-78
2023/12/26 05:37:48;;;;;;;4.50;1.15;;;6.90;99.90;;;;;;4888376;29;20081;-78
2023/12/26 05:40:14;;;;;;;2.22;1.10;;;7.00;99.90;;;;;;4903958;29;20017;-77
2023/12/26 05:42:39;;;;;;;9.00;2.03;;;7.00;99.90;;;;;;4888897;29;20018;-78
2023/12/26 05:45:05;;;;;;;4.22;1.67;;;7.10;99.90;;;;;;4888638;29;20017;-78
2023/12/26 05:47:31;;;;;;;4.85;1.27;;;7.10;99.90;;;;;;4888327;29;20006;-77
2023/12/26 05:49:58;;;;;;;7.82;1.88;;;7.00;99.90;;;;;;4888207;29;20055;-78
2023/12/26 05:52:24;;;;;;;3.15;1.40;;;7.00;99.90;;;;;;4888307;29;20013;-78
2023/12/26 05:58:16;;;;;;;4.20;1.70;;;7.00;99.90;;;;;;4888718;29;20038;-77
2023/12/26 06:03:54;;;;;;;2.85;1.23;;;7.00;99.90;;;;;;4850741;29;20078;-76
2023/12/26 06:06:21;;;;;;;7.63;2.30;;;7.00;99.90;;;;;;4850703;29;20056;-78
2023/12/26 06:08:46;;;;;;;5.65;1.50;;;7.00;99.90;;;;;;4850570;29;20030;-78
2023/12/26 06:11:12;;;;;;;5.03;2.05;;;7.00;99.90;;;;;;4850720;29;20026;-79
2023/12/26 06:13:38;;;;;;;3.20;0.95;;;7.00;99.90;;;;;;4850695;29;20025;-79
2023/12/26 06:16:04;;;;;;;7.72;1.40;;;7.00;99.90;;;;;;4849690;29;20042;-78
2023/12/26 06:18:53;;;;;;;1.98;1.48;;;7.10;99.90;;;;;;4796350;29;20036;-77
2023/12/26 06:21:22;;;;;;;3.17;1.90;;;7.20;99.90;;;;;;4827280;29;20026;-78
2023/12/26 06:27:30;;;;;;;4.18;1.60;;;7.20;99.90;;;;;;4850358;29;20071;-78
2023/12/26 06:29:55;;;;;;;4.70;1.75;;;7.10;99.90;;;;;;4862637;29;20042;-78
2023/12/26 06:32:21;;;;;;;2.88;1.00;;;7.20;99.90;;;;;;4868647;29;20029;-79
2023/12/26 06:38:13;;;;;;;1.95;1.00;;;7.30;99.90;;;;;;4906016;29;20045;-77
2023/12/26 06:40:39;;;;;;;4.63;1.25;;;7.30;99.90;;;;;;4904920;29;20076;-78
2023/12/26 06:46:05;;;;;;;6.32;1.27;;;7.40;99.90;;;;;;4931827;23;20067;-78
2023/12/26 06:48:54;;;;;;;3.00;1.40;;;7.40;99.90;;;;;;4958830;29;20020;-78
2023/12/26 06:51:19;;;;;;;2.60;1.00;;;7.40;99.90;;;;;;4928511;29;20023;-77
2023/12/26 06:54:32;;;;;;;4.47;1.38;;;7.40;99.90;;;;;;4941323;29;20288;-76
2023/12/26 06:56:57;;;;;;;7.22;2.00;;;7.50;99.90;;;;;;4938561;29;20062;-77
2023/12/26 06:59:23;;;;;;;2.50;1.33;;;7.50;99.90;;;;;;4942914;29;20008;-78
2023/12/26 07:01:49;;;;;;;2.28;1.48;;;7.40;99.90;;;;;;4949564;28;20034;-78
2023/12/26 07:04:51;;;;;;;4.00;1.58;;;7.50;99.90;;;;;;4962154;28;20019;-78
2023/12/26 07:07:22;;;;;;;1.38;1.20;;;7.50;99.90;;;;;;4961587;28;20014;-82
2023/12/26 07:10:14;;;;;;;3.03;1.25;;;7.50;99.90;;;;;;4962637;28;20028;-77
2023/12/26 07:12:41;;;;;;;4.60;1.17;;;7.50;99.90;;;;;;4961961;28;20015;-78
2023/12/26 07:15:30;;;;;;;3.22;1.30;;;7.50;99.90;;;;;;4942629;29;20043;-77
2023/12/26 07:19:05;;;;;;;5.20;1.10;;;7.50;99.90;;;;;;4942417;29;20013;-77
2023/12/26 07:21:31;;;;;;;3.33;1.73;;;7.50;99.90;;;;;;4948918;28;20059;-77
2023/12/26 07:24:42;;;;;;;9.55;2.58;;;7.50;99.90;;;;;;4940627;29;20024;-78
2023/12/26 07:27:49;;;;;;;8.75;1.70;;;7.50;99.90;;;;;;4942274;29;20024;-79
2023/12/26 07:30:15;;;;;;;6.28;2.00;;;7.50;99.90;;;;;;4926368;29;20031;-78
2023/12/26 07:32:41;;;;;;;3.28;1.17;;;7.60;99.90;;;;;;4946319;23;20032;-78
2023/12/26 07:35:06;;;;;;;4.15;1.67;;;7.50;99.90;;;;;;4926510;29;20032;-78
2023/12/26 07:37:32;;;;;;;7.60;1.92;;;7.60;99.90;;;;;;4942701;29;20013;-77
2023/12/26 07:39:58;;;;;;;4.00;1.73;;;7.60;99.90;;;;;;4926686;29;20012;-78
2023/12/26 07:42:41;;;;;;;1.55;1.05;;;7.60;99.90;;;;;;4926185;29;20091;-78
2023/12/26 07:45:41;;;;;;;3.67;1.63;;;7.60;99.90;;;;;;4940166;29;20027;-77
2023/12/26 07:48:07;;;;;;;4.82;1.50;;;7.60;99.90;;;;;;4922778;29;20048;-78
2023/12/26 07:53:38;;;;;;;2.97;1.70;;;7.70;99.90;;;;;;4830401;29;20052;-77
2023/12/26 07:56:04;;;;;;;9.20;1.55;;;7.60;99.90;;;;;;4925100;29;20087;-78
2023/12/26 08:01:53;;;;;;;3.65;1.15;;;7.70;99.90;;;;;;4903995;29;20020;-77
2023/12/26 08:04:57;;;;;;;2.47;0.63;;;7.70;99.90;;;;;;4903474;29;20120;-77
2023/12/26 08:07:27;;;;;;;5.25;1.60;;;7.70;99.90;;;;;;4904288;29;20024;-78
2023/12/26 08:10:05;;;;;;;3.83;1.25;;;7.70;99.90;;;;;;5147946;27;20367;-85
2023/12/26 08:12:31;;;;;;;5.45;1.83;;;7.70;99.90;;;;;;5111704;28;20024;-87
2023/12/26 08:15:19;;;;;;;6.57;1.73;;;7.80;99.90;;;;;;5113911;28;20012;-86
2023/12/26 08:17:58;;;;;;;2.47;0.68;;;7.80;99.90;;;;;;5097531;28;20026;-83
2023/12/26 08:21:00;;;;;;;3.90;0.77;;;7.80;99.90;;;;;;5115518;28;20024;-80
2023/12/26 08:23:48;;;;;;;5.85;0.85;;;7.90;99.90;;;;;;5095445;28;20990;-84
2023/12/26 08:26:13;;;;;;;3.28;1.50;;;7.90;99.90;;;;;;5080324;28;20032;-87
2023/12/26 08:28:41;;;;;;;5.03;1.13;;;7.90;99.90;;;;;;5086918;28;20033;-88
2023/12/26 08:31:07;;;;;;;6.30;1.30;;;7.90;99.90;;;;;;5068181;28;20028;-86
2023/12/26 08:33:35;;;;;;;4.32;1.20;;;8.00;99.90;;;;;;5106579;28;20034;-87
2023/12/26 08:36:02;;;;;;;2.65;1.02;;;8.00;99.90;;;;;;5111241;28;20031;-85
2023/12/26 08:38:31;;;;;;;4.40;1.20;;;8.00;99.90;;;;;;5131184;28;20020;-86
2023/12/26 08:40:59;;;;;;;2.10;1.15;;;8.00;99.90;;;;;;5102271;28;20039;-87
2023/12/26 08:43:28;;;;;;;2.42;1.45;;;8.10;99.90;;;;;;5104210;28;20032;-88
2023/12/26 08:45:54;;;;;;;3.35;1.10;;;8.10;99.90;;;;;;5101495;28;20051;-88
2023/12/26 08:48:29;;;;;;;1.77;1.15;;;8.40;99.90;;;;;;5071152;28;20036;-86
2023/12/26 08:50:55;;;;;;;5.72;1.30;;;8.20;99.90;;;;;;5097599;28;20098;-87
2023/12/26 08:53:21;;;;;;;4.30;1.58;;;7.60;99.90;;;;;;5110506;28;20080;-85
2023/12/26 08:55:47;;;;;;;5.25;1.00;;;8.20;99.90;;;;;;5082362;28;20040;-85
2023/12/26 08:58:13;;;;;;;6.00;1.17;;;8.30;99.90;;;;;;5067759;28;20028;-84
2023/12/26 09:00:44;;;;;;;3.08;0.88;;;8.20;99.90;;;;;;5058976;28;20039;-83
2023/12/26 09:03:10;;;;;;;6.55;1.25;;;8.40;99.90;;;;;;5082671;28;20016;-85
2023/12/26 09:05:36;;;;;;;2.90;1.23;;;8.40;99.90;;;;;;5088044;28;20012;-84
2023/12/26 09:08:02;;;;;;;3.35;1.38;;;8.40;99.90;;;;;;5087756;28;20071;-84
2023/12/26 09:10:30;;;;;;;3.03;0.95;;;8.40;99.90;;;;;;5072556;28;20013;-85
2023/12/26 09:12:56;;;;;;;5.68;1.35;;;8.40;99.90;;;;;;5085408;28;20045;-86
2023/12/26 09:15:25;;;;;;;4.28;1.75;;;8.40;99.90;;;;;;5082161;28;20017;-89
2023/12/26 09:17:50;;;;;;;3.35;1.17;;;8.40;99.90;;;;;;5070619;28;20028;-82
2023/12/26 09:20:20;;;;;;;4.25;1.10;;;8.40;99.90;;;;;;5062940;28;20024;-81
2023/12/26 09:22:46;;;;;;;4.70;1.38;;;8.40;99.90;;;;;;5059666;28;20036;-77
2023/12/26 09:25:13;;;;;;;3.97;1.02;;;8.50;99.90;;;;;;5062456;28;20025;-81
2023/12/26 09:27:38;;;;;;;2.88;1.42;;;8.50;99.90;;;;;;5060630;28;20152;-83
2023/12/26 09:30:05;;;;;;;3.60;1.23;;;8.60;99.90;;;;;;5059725;28;20136;-88
2023/12/26 09:32:30;;;;;;;4.50;1.42;;;8.20;99.90;;;;;;5064494;28;20017;-85
2023/12/26 09:34:56;;;;;;;3.90;1.15;;;8.70;99.90;;;;;;5085817;28;20098;-82
2023/12/26 09:37:21;;;;;;;8.93;1.08;;;8.60;99.90;;;;;;5082592;28;20023;-85
2023/12/26 09:39:47;;;;;;;7.45;1.52;;;8.80;99.90;;;;;;5084293;28;20040;-82
2023/12/26 09:42:21;;;;;;;4.43;1.13;;;8.80;99.90;;;;;;5087400;28;20027;-79
2023/12/26 09:44:48;;;;;;;15.63;1.13;;;8.70;99.90;;;;;;5055172;28;20024;-84
2023/12/26 09:47:16;;;;;;;1.38;0.90;;;8.70;99.90;;;;;;5078500;28;20017;-86
2023/12/26 09:49:43;;;;;;;3.60;0.95;;;8.70;99.90;;;;;;5034834;28;20048;-83
2023/12/26 09:52:10;;;;;;;3.50;1.10;;;8.70;99.90;;;;;;5028036;28;20027;-85
2023/12/26 09:54:38;;;;;;;4.85;1.67;;;8.80;99.90;;;;;;5017363;28;20029;-83
2023/12/26 09:57:09;;;;;;;4.00;1.48;;;8.40;99.90;;;;;;5039967;28;20020;-78
2023/12/26 09:59:36;;;;;;;3.22;1.35;;;8.80;99.90;;;;;;5033284;28;20029;-76
2023/12/26 10:02:04;;;;;;;6.75;1.55;;;8.70;99.90;;;;;;5050545;28;20221;-75
2023/12/26 10:04:30;;;;;;;3.67;2.10;;;8.60;99.90;;;;;;5036799;28;20061;-76
2023/12/26 10:06:56;;;;;;;3.15;1.35;;;8.60;99.90;;;;;;5036503;28;20048;-75
2023/12/26 10:09:21;;;;;;;6.38;2.00;;;8.60;99.90;;;;;;5040113;28;20044;-74
2023/12/26 10:11:47;;;;;;;3.03;1.20;;;8.60;99.90;;;;;;5050244;28;20040;-75
2023/12/26 10:14:29;;;;;;;4.40;1.75;;;8.60;99.90;;;;;;5051538;28;20039;-75
2023/12/26 10:16:58;;;;;;;2.55;1.30;;;8.70;99.90;;;;;;5057129;28;20035;-76
2023/12/26 10:19:24;;;;;;;2.07;0.93;;;8.80;99.90;;;;;;5063857;28;20148;-77
2023/12/26 10:21:51;;;;;;;5.78;0.95;;;8.80;99.90;;;;;;5077644;28;20267;-75
2023/12/26 10:24:18;;;;;;;3.60;0.95;;;8.90;99.90;;;;;;5093003;28;20579;-78
2023/12/26 10:26:43;;;;;;;2.95;1.45;;;8.90;99.90;;;;;;5087416;28;20103;-77
2023/12/26 10:29:16;;;;;;;2.75;1.50;;;9.10;99.90;;;;;;5079819;28;20075;-75
2023/12/26 10:31:43;;;;;;;3.03;1.08;;;9.20;99.90;;;;;;5068194;28;20024;-75
2023/12/26 10:34:19;;;;;;;3.03;1.42;;;9.10;99.90;;;;;;5075678;28;20039;-76
2023/12/26 10:36:46;;;;;;;1.67;1.17;;;9.00;99.90;;;;;;5097517;28;20164;-76
2023/12/26 10:39:12;;;;;;;6.75;1.00;;;9.00;99.90;;;;;;5088984;28;20475;-76
2023/12/26 10:41:42;;;;;;;4.43;1.40;;;8.90;99.90;;;;;;5110872;28;20103;-75
2023/12/26 10:44:09;;;;;;;8.48;1.65;;;8.90;99.90;;;;;;5108612;28;20028;-74
2023/12/26 10:46:36;;;;;;;4.45;1.00;;;8.80;99.90;;;;;;5088295;28;20023;-75
2023/12/26 10:49:05;;;;;;;4.32;1.40;;;8.90;99.90;;;;;;5087963;28;20040;-77
2023/12/26 10:51:32;;;;;;;4.72;1.65;;;8.80;99.90;;;;;;5088619;28;20304;-77
2023/12/26 10:54:07;;;;;;;0.52;0.52;;;8.80;99.90;;;;;;5082920;28;20032;-76
2023/12/26 10:56:33;;;;;;;4.55;1.05;;;8.90;99.90;;;;;;5082547;28;20335;-76
2023/12/26 10:59:01;;;;;;;2.10;1.08;;;8.90;99.90;;;;;;5082014;28;20050;-76
2023/12/26 13:53:50;;;;;;;4.82;1.38;;;9.20;99.90;;;;;;5062603;28;20267;-77
2023/12/26 13:56:53;;;;;;;1.85;1.00;;;9.30;99.90;;;;;;5045355;28;20351;-77
2023/12/26 14:00:05;;;;;;;4.85;1.65;;;9.30;99.90;;;;;;5045178;28;20021;-76
2023/12/26 14:03:07;;;;;;;5.55;0.90;;;9.40;99.90;;;;;;5063584;28;20040;-77
2023/12/26 14:06:10;;;;;;;5.68;0.80;;;9.30;99.90;;;;;;5064271;28;20222;-77
2023/12/26 14:09:14;;;;;;;15.70;2.55;;;9.10;99.90;;;;;;5072831;28;20115;-76
2023/12/26 14:12:17;;;;;;;7.25;1.15;;;9.10;99.90;;;;;;5093422;28;20020;-76
2023/12/26 14:15:20;;;;;;;5.70;1.35;;;9.10;99.90;;;;;;5092203;28;20079;-78
2023/12/26 14:18:23;;;;;;;3.83;0.98;;;9.00;99.90;;;;;;5080572;28;20024;-78
2023/12/26 14:21:27;;;;;;;7.55;1.13;;;9.00;99.90;;;;;;5081406;28;20133;-77
2023/12/26 14:24:30;;;;;;;1.40;1.05;;;9.00;99.90;;;;;;5082829;28;20250;-79
2023/12/26 14:27:33;;;;;;;3.38;0.90;;;9.10;99.90;;;;;;5081695;28;20021;-77
2023/12/26 14:30:36;;;;;;;4.93;1.20;;;10.00;99.90;;;;;;5080951;28;20052;-82
2023/12/26 14:33:39;;;;;;;2.45;1.13;;;11.20;98.60;;;;;;5082422;28;20345;-80
2023/12/26 14:36:45;;;;;;;5.05;0.75;;;11.90;93.80;;;;;;5079873;28;20032;-76
2023/12/26 14:39:48;;;;;;;1.50;0.93;;;10.90;94.50;;;;;;5083625;28;20063;-77
2023/12/26 14:42:51;;;;;;;5.50;1.00;;;9.80;97.60;;;;;;5087533;28;20036;-75
2023/12/26 14:45:54;;;;;;;8.13;1.40;;;9.40;99.80;;;;;;5082376;28;20027;-76
2023/12/26 14:48:58;;;;;;;2.40;0.70;;;10.10;99.60;;;;;;5080864;28;20103;-76
2023/12/26 14:52:01;;;;;;;3.50;1.17;;;10.20;99.20;;;;;;5079504;28;20028;-77
2023/12/26 14:55:04;;;;;;;2.88;0.70;;;9.70;99.90;;;;;;5080409;28;20074;-77
2023/12/26 14:58:08;;;;;;;3.03;2.80;;;9.10;99.90;;;;;;5098117;28;20028;-81
2023/12/26 15:01:11;;;;;;;7.28;1.30;;;8.70;99.90;;;;;;5103954;28;20016;-77
2023/12/26 15:03:37;;;;;;;4.82;1.15;;;8.50;99.90;;;;;;5104969;28;20028;-79
2023/12/26 15:06:03;;;;;;;7.93;1.13;;;8.30;99.90;;;;;;5103153;28;20080;-76
2023/12/26 15:08:28;;;;;;;4.65;1.00;;;8.10;99.90;;;;;;5095068;28;20103;-78
2023/12/26 15:11:03;;;;;;;8.82;2.05;;;8.10;99.90;;;;;;5081475;28;20039;-77
2023/12/26 15:13:29;;;;;;;3.00;1.27;;;8.00;99.90;;;;;;5081372;28;20044;-77
2023/12/26 15:15:54;;;;;;;10.65;1.88;;;7.30;99.90;;;;;;5084678;28;20044;-77
2023/12/26 15:18:21;;;;;;;6.50;1.33;;;7.90;99.90;;;;;;5065466;28;20032;-76
2023/12/26 15:20:47;;;;;;;4.63;1.13;;;7.80;99.90;;;;;;5080634;28;20017;-76
2023/12/26 15:23:12;;;;;;;5.63;1.70;;;7.70;99.90;;;;;;5060758;28;20115;-77
2023/12/26 15:25:38;;;;;;;3.35;1.17;;;7.60;99.90;;;;;;5058825;28;20307;-77
2023/12/26 15:28:04;;;;;;;1.27;0.77;;;7.60;99.90;;;;;;5042306;28;20021;-77
2023/12/26 15:30:30;;;;;;;8.95;0.98;;;7.50;99.90;;;;;;5042111;28;20056;-76
2023/12/26 15:32:56;;;;;;;3.58;1.20;;;7.20;99.90;;;;;;5041370;28;20118;-76
2023/12/26 15:35:21;;;;;;;3.47;1.13;;;7.40;99.90;;;;;;5059535;28;20025;-76
2023/12/26 15:37:47;;;;;;;1.70;1.35;;;7.30;99.90;;;;;;5059469;28;20329;-77
2023/12/26 15:40:13;;;;;;;6.03;2.00;;;7.10;99.90;;;;;;5040842;28;20332;-76
2023/12/26 15:42:42;;;;;;;8.43;1.38;;;7.00;99.90;;;;;;5040998;28;20028;-77
2023/12/26 15:45:08;;;;;;;4.72;0.90;;;6.90;99.90;;;;;;5041150;28;20031;-76
2023/12/26 15:47:34;;;;;;;5.60;2.58;;;6.80;99.90;;;;;;5041145;28;20029;-75
2023/12/26 15:50:00;;;;;;;8.38;2.10;;;6.80;99.90;;;;;;5059248;28;20033;-76
2023/12/26 15:52:26;;;;;;;3.55;1.00;;;6.70;99.90;;;;;;5041691;28;20279;-76
2023/12/26 15:54:51;;;;;;;3.05;1.55;;;6.70;99.90;;;;;;5039889;28;20024;-76
2023/12/26 15:57:17;;;;;;;4.10;1.63;;;6.60;99.90;;;;;;5049859;28;20025;-76
2023/12/26 15:59:43;;;;;;;4.22;1.92;;;6.50;99.90;;;;;;5059486;28;20028;-75
2023/12/26 16:02:08;;;;;;;4.03;1.15;;;6.50;99.90;;;;;;5058899;28;20024;-74
2023/12/26 16:04:34;;;;;;;6.45;1.30;;;6.60;99.90;;;;;;5059800;28;20013;-76
2023/12/26 16:07:00;;;;;;;4.32;1.65;;;6.60;99.90;;;;;;5058829;28;20364;-76
2023/12/26 16:09:28;;;;;;;7.72;2.45;;;6.70;99.90;;;;;;5059712;28;20068;-75
2023/12/26 16:11:53;;;;;;;5.28;1.20;;;6.00;99.90;;;;;;5042458;28;20067;-75
2023/12/26 16:14:19;;;;;;;4.03;1.17;;;6.60;99.90;;;;;;5062633;28;20021;-76
2023/12/26 16:16:45;;;;;;;4.45;1.23;;;6.60;99.90;;;;;;5053295;28;20079;-76
2023/12/26 16:19:11;;;;;;;7.22;1.30;;;6.60;99.90;;;;;;5070499;28;20044;-76
2023/12/26 16:21:39;;;;;;;4.13;1.50;;;6.50;99.90;;;;;;5051659;28;20084;-76
2023/12/26 16:24:05;;;;;;;10.93;3.80;;;6.50;99.90;;;;;;5069298;28;20040;-77
2023/12/26 16:26:31;;;;;;;9.93;2.13;;;6.50;99.90;;;;;;5053372;28;20309;-78
2023/12/26 16:28:56;;;;;;;5.72;2.72;;;6.50;99.90;;;;;;5069314;28;20372;-77
2023/12/26 16:31:22;;;;;;;7.50;2.22;;;6.60;99.90;;;;;;5055281;28;20048;-75
2023/12/26 16:33:49;;;;;;;10.00;3.97;;;6.60;99.90;;;;;;5074923;28;20040;-75
2023/12/26 16:36:14;;;;;;;6.80;1.45;;;6.60;99.90;;;;;;5072865;28;20016;-77
2023/12/26 16:38:40;;;;;;;6.95;1.27;;;6.50;99.90;;;;;;5072500;28;20202;-77
2023/12/26 16:41:08;;;;;;;5.78;2.15;;;6.60;99.90;;;;;;5073249;28;20005;-75
2023/12/26 16:43:35;;;;;;;5.78;1.80;;;6.50;99.90;;;;;;5075220;28;20059;-76
2023/12/26 16:46:06;;;;;;;4.68;2.13;;;6.40;99.90;;;;;;5074104;28;20220;-76
2023/12/26 16:48:32;;;;;;;6.07;2.13;;;6.30;99.90;;;;;;5054872;28;20028;-76
2023/12/26 16:50:57;;;;;;;6.05;1.52;;;6.20;99.90;;;;;;5056971;28;20239;-76
2023/12/26 16:53:23;;;;;;;9.63;2.67;;;6.20;99.90;;;;;;5074670;28;20032;-77
2023/12/26 16:55:48;;;;;;;3.20;1.10;;;6.20;99.90;;;;;;5074074;28;20337;-76
2023/12/26 16:58:14;;;;;;;20.30;7.88;;;6.10;99.90;;;;;;5056880;28;20012;-75
2023/12/26 17:00:40;;;;;;;7.35;1.90;;;6.10;99.90;;;;;;5055705;28;20016;-76
2023/12/26 17:03:05;;;;;;;2.53;1.48;;;6.20;99.90;;;;;;5067510;28;20127;-77
2023/12/26 17:05:31;;;;;;;3.92;1.35;;;6.20;99.90;;;;;;5045285;28;20040;-77
2023/12/26 17:07:57;;;;;;;5.95;2.08;;;6.20;99.90;;;;;;5066878;28;20108;-76
2023/12/26 17:10:23;;;;;;;8.50;2.90;;;6.20;99.90;;;;;;5069494;28;20056;-77
2023/12/26 17:12:48;;;;;;;8.80;3.17;;;6.00;99.90;;;;;;5046968;28;20455;-77
2023/12/26 17:15:14;;;;;;;3.88;1.77;;;5.90;99.90;;;;;;5054576;28;20058;-75
2023/12/26 17:17:40;;;;;;;5.93;2.67;;;5.70;99.90;;;;;;5074219;28;20034;-75